Time;durP1;ratioP1;P1;durP2;ratioP2;P2;SDS_P1;SDS_P2;PMS_P1;PMS_P2;Temp;Humidity;BMP_temperature;BMP_pressure;BME280_temperature;BME280_humidity;BME280_pressure;Samples;Min_cycle;Max_cycle;Signal;HPM_P1;HPM_P2
2022/01/21 00:02:13;;;;;;;9.1;16.1;;;;;;;-0.9;72.5;98580;;;;
2022/01/21 00:13:19;;;;;;;9.1;16.1;;;;;;;-0.9;72;98580;;;;
2022/01/21 00:34:13;;;;;;;13.7;22.2;;;;;;;-0.9;73.1;98600;;;;
2022/01/21 00:45:15;;;;;;;13.7;22.2;;;;;;;-1;73.8;98600;;;;
2022/01/21 00:55:13;;;;;;;13.7;22.2;;;;;;;-1;75.2;98620;;;;
2022/01/21 01:05:13;;;;;;;11.9;20.3;;;;;;;-1;76;98630;;;;
2022/01/21 01:37:26;;;;;;;9.8;16.3;;;;;;;-1.2;75;98640;;;;
2022/01/21 01:59:13;;;;;;;7.2;9.8;;;;;;;-1.2;74.4;98650;;;;
2022/01/21 02:09:13;;;;;;;7.2;9.8;;;;;;;-1.3;73.4;98670;;;;
2022/01/21 02:30:18;;;;;;;3.9;6.4;;;;;;;-1.9;67.1;98690;;;;
2022/01/21 02:40:13;;;;;;;3.9;6.4;;;;;;;-2;68.1;98700;;;;
2022/01/21 02:50:13;;;;;;;3.9;6.4;;;;;;;-2;68.3;98690;;;;
2022/01/21 03:01:14;;;;;;;3.3;9.2;;;;;;;-2;68.4;98710;;;;
2022/01/21 03:12:13;;;;;;;3.3;9.2;;;;;;;-2;68.7;98740;;;;
2022/01/21 03:23:16;;;;;;;3.3;9.2;;;;;;;-2.2;70.6;98740;;;;
2022/01/21 03:34:13;;;;;;;4.5;7;;;;;;;-2.3;71.1;98750;;;;
2022/01/21 03:44:13;;;;;;;4.5;7;;;;;;;-2.2;72.8;98770;;;;
2022/01/21 03:54:13;;;;;;;4.5;7;;;;;;;-2.2;72.4;98780;;;;
2022/01/21 04:04:13;;;;;;;5.7;11.2;;;;;;;-2.4;72.8;98770;;;;
2022/01/21 04:15:13;;;;;;;5.7;11.2;;;;;;;-2.7;72.3;98780;;;;
2022/01/21 04:26:13;;;;;;;5.7;11.2;;;;;;;-2.7;71.2;98790;;;;
2022/01/21 04:36:13;;;;;;;4.5;7.6;;;;;;;-3;71.2;98800;;;;
2022/01/21 04:47:18;;;;;;;4.5;7.6;;;;;;;-3.1;71.3;98800;;;;
2022/01/21 04:58:13;;;;;;;5;9.7;;;;;;;-3.2;72.5;98820;;;;
2022/01/21 05:09:15;;;;;;;5;9.7;;;;;;;-3.3;73.9;98820;;;;
2022/01/21 05:19:15;;;;;;;5;9.7;;;;;;;-3.4;74.1;98820;;;;
2022/01/21 05:29:13;;;;;;;5.6;9.7;;;;;;;-3.4;73.4;98830;;;;
2022/01/21 05:39:13;;;;;;;5.6;9.7;;;;;;;-3.4;72.6;98840;;;;
2022/01/21 05:50:13;;;;;;;5.6;9.7;;;;;;;-3.2;71.4;98840;;;;
2022/01/21 06:01:13;;;;;;;5.2;8.4;;;;;;;-3;71.2;98830;;;;
2022/01/21 06:11:13;;;;;;;5.2;8.4;;;;;;;-2.9;70.5;98850;;;;
2022/01/21 06:22:15;;;;;;;5.2;8.4;;;;;;;-2.7;70.5;98860;;;;
2022/01/21 06:33:13;;;;;;;6.4;11.9;;;;;;;-2.6;72.2;98870;;;;
2022/01/21 06:44:14;;;;;;;6.4;11.9;;;;;;;-2.6;73.9;98860;;;;
2022/01/21 06:55:13;;;;;;;6.4;11.9;;;;;;;-2.5;74.7;98870;;;;
2022/01/21 07:05:13;;;;;;;7.5;10.7;;;;;;;-2.5;75.5;98870;;;;
2022/01/21 07:15:15;;;;;;;7.5;10.7;;;;;;;-2.6;76.3;98880;;;;
2022/01/21 07:25:14;;;;;;;7.5;10.7;;;;;;;-2.3;76.5;98880;;;;
2022/01/21 07:36:13;;;;;;;9.9;13.5;;;;;;;-2.5;78.1;98900;;;;
2022/01/21 07:47:13;;;;;;;9.9;13.5;;;;;;;-2.3;77.8;98900;;;;
2022/01/21 07:57:13;;;;;;;8.8;12.6;;;;;;;-2.2;77;98910;;;;
2022/01/21 08:07:13;;;;;;;8.8;12.6;;;;;;;-2;76.5;98900;;;;
2022/01/21 08:18:15;;;;;;;8.8;12.6;;;;;;;-1.9;76.4;98900;;;;
2022/01/21 08:28:13;;;;;;;9.2;12.4;;;;;;;-1.7;75.5;98900;;;;
2022/01/21 08:39:13;;;;;;;9.2;12.4;;;;;;;-1.6;75.7;98920;;;;
2022/01/21 08:49:13;;;;;;;9.2;12.4;;;;;;;-1.7;76.4;98940;;;;
2022/01/21 09:00:13;;;;;;;12.6;19.5;;;;;;;-1.5;75.9;98930;;;;
2022/01/21 09:10:13;;;;;;;12.6;19.5;;;;;;;-1.3;76.6;98940;;;;
2022/01/21 09:21:13;;;;;;;12.6;19.5;;;;;;;-1.1;75.7;98940;;;;
2022/01/21 09:32:13;;;;;;;12.4;17.6;;;;;;;-1.1;75.7;98940;;;;
2022/01/21 09:43:13;;;;;;;12.4;17.6;;;;;;;-1.3;76.2;98930;;;;
2022/01/21 09:54:13;;;;;;;12.4;17.6;;;;;;;-1.1;76.1;98930;;;;
2022/01/21 10:04:13;;;;;;;12.6;18;;;;;;;-0.9;75.4;98930;;;;
2022/01/21 10:15:13;;;;;;;12.6;18;;;;;;;-0.6;74;98910;;;;
2022/01/21 10:25:16;;;;;;;12.6;18;;;;;;;-0.5;73.4;98900;;;;
2022/01/21 10:35:13;;;;;;;11.7;19.1;;;;;;;-0.6;72.6;98890;;;;
2022/01/21 10:45:13;;;;;;;11.7;19.1;;;;;;;-0.2;72.4;98890;;;;
2022/01/21 10:55:13;;;;;;;11.7;19.1;;;;;;;-0.6;74.2;98880;;;;
2022/01/21 11:05:16;;;;;;;11.5;16.2;;;;;;;-0.4;75;98890;;;;
2022/01/21 11:15:13;;;;;;;11.5;16.2;;;;;;;-0.1;74.3;98880;;;;
2022/01/21 11:25:13;;;;;;;11.5;16.2;;;;;;;0;73.7;98880;;;;
2022/01/21 11:36:13;;;;;;;12.9;17;;;;;;;-0.1;74.8;98860;;;;
2022/01/21 11:46:20;;;;;;;12.9;17;;;;;;;0.2;73.8;98870;;;;
2022/01/21 11:56:13;;;;;;;13.5;22.7;;;;;;;0.2;73.8;98860;;;;
2022/01/21 12:06:13;;;;;;;13.5;22.7;;;;;;;0.3;73.2;98850;;;;
2022/01/21 12:17:19;;;;;;;13.5;22.7;;;;;;;0.2;70.2;98860;;;;
2022/01/21 12:27:13;;;;;;;8;11.2;;;;;;;0.4;68.9;98860;;;;
2022/01/21 12:39:09;;;;;;;8;11.2;;;;;;;0.2;70.6;98870;;;;
2022/01/21 12:49:13;;;;;;;8;11.2;;;;;;;0.1;66.7;98860;;;;
2022/01/21 13:00:13;;;;;;;6.3;9;;;;;;;0.4;64.2;98850;;;;
2022/01/21 13:11:16;;;;;;;6.3;9;;;;;;;0.2;64;98860;;;;
2022/01/21 13:21:13;;;;;;;6.3;9;;;;;;;0.2;63.9;98860;;;;
2022/01/21 13:31:13;;;;;;;6.3;12.1;;;;;;;0;64.7;98870;;;;
2022/01/21 13:42:15;;;;;;;6.3;12.1;;;;;;;-0.3;64.7;98850;;;;
2022/01/21 13:52:13;;;;;;;6.3;12.1;;;;;;;-0.5;64.6;98870;;;;
2022/01/21 14:03:13;;;;;;;5.8;9.4;;;;;;;-0.5;66.8;98870;;;;
2022/01/21 14:13:13;;;;;;;5.8;9.4;;;;;;;-0.7;68.2;98870;;;;
2022/01/21 14:23:15;;;;;;;5.8;9.4;;;;;;;-0.9;67.7;98870;;;;
2022/01/21 14:33:13;;;;;;;5.8;10.1;;;;;;;-1;64.5;98880;;;;
2022/01/21 14:43:13;;;;;;;5.8;10.1;;;;;;;-1;63.8;98870;;;;
2022/01/21 14:53:13;;;;;;;5.8;10.1;;;;;;;-1.1;62.7;98860;;;;
2022/01/21 15:03:13;;;;;;;7.4;12.2;;;;;;;-1.2;63.8;98870;;;;
2022/01/21 15:24:13;;;;;;;7.4;12.2;;;;;;;-1.5;65.9;98870;;;;
2022/01/21 15:34:13;;;;;;;5.9;12.2;;;;;;;-1.5;66;98890;;;;
2022/01/21 15:44:13;;;;;;;5.9;12.2;;;;;;;-2.1;77;98900;;;;
2022/01/21 15:54:13;;;;;;;5.9;12.2;;;;;;;-2.5;79.5;98890;;;;
2022/01/21 16:05:13;;;;;;;5.2;9.3;;;;;;;-2.9;79.8;98910;;;;
2022/01/21 16:15:13;;;;;;;5.2;9.3;;;;;;;-2.9;79.6;98910;;;;
2022/01/21 16:26:13;;;;;;;6.7;11.8;;;;;;;-3;80.4;98920;;;;
2022/01/21 16:37:15;;;;;;;6.7;11.8;;;;;;;-2.9;80.1;98920;;;;
2022/01/21 16:47:13;;;;;;;6.7;11.8;;;;;;;-2.7;79.8;98910;;;;
2022/01/21 16:57:14;;;;;;;8.8;11.6;;;;;;;-2.6;79.3;98910;;;;
2022/01/21 17:07:13;;;;;;;8.8;11.6;;;;;;;-2.4;78.3;98920;;;;
2022/01/21 17:17:13;;;;;;;8.8;11.6;;;;;;;-2.3;77.5;98920;;;;
2022/01/21 17:27:13;;;;;;;13.3;17.4;;;;;;;-2.1;77.1;98920;;;;
2022/01/21 17:38:13;;;;;;;13.3;17.4;;;;;;;-2;77;98930;;;;
2022/01/21 17:49:13;;;;;;;13.3;17.4;;;;;;;-1.9;77;98920;;;;
2022/01/21 17:59:13;;;;;;;16.5;23.8;;;;;;;-1.9;76.6;98920;;;;
2022/01/21 18:09:16;;;;;;;16.5;23.8;;;;;;;-1.9;76.1;98910;;;;
2022/01/21 18:19:18;;;;;;;16.5;23.8;;;;;;;-1.9;76;98930;;;;
2022/01/21 18:30:17;;;;;;;24.7;32.4;;;;;;;-1.9;76;98930;;;;
2022/01/21 18:41:16;;;;;;;24.7;32.4;;;;;;;-1.8;75.9;98910;;;;
2022/01/21 18:51:13;;;;;;;24.7;32.4;;;;;;;-2;77.4;98910;;;;
2022/01/21 19:02:14;;;;;;;20.7;32.5;;;;;;;-1.9;77.5;98900;;;;
2022/01/21 19:13:13;;;;;;;20.7;32.5;;;;;;;-1.9;76.8;98900;;;;
2022/01/21 19:23:24;;;;;;;20.7;32.5;;;;;;;-1.9;76.4;98900;;;;
2022/01/21 19:33:13;;;;;;;19.6;32.8;;;;;;;-1.8;77.2;98900;;;;
2022/01/21 19:43:13;;;;;;;19.6;32.8;;;;;;;-1.8;77.5;98890;;;;
2022/01/21 19:54:13;;;;;;;19.6;32.8;;;;;;;-1.8;76.6;98900;;;;
2022/01/21 20:06:51;;;;;;;17;23.7;;;;;;;-1.9;77.2;98900;;;;
2022/01/21 20:16:14;;;;;;;17;23.7;;;;;;;-2;77;98900;;;;
2022/01/21 20:26:15;;;;;;;14.6;23.3;;;;;;;-2.1;76.5;98890;;;;
2022/01/21 20:37:19;;;;;;;14.6;23.3;;;;;;;-2.5;76.9;98890;;;;
2022/01/21 20:48:13;;;;;;;14.6;23.3;;;;;;;-2.5;79;98900;;;;
2022/01/21 20:59:13;;;;;;;12.5;16.9;;;;;;;-2.4;81.2;98900;;;;
2022/01/21 21:09:20;;;;;;;12.5;16.9;;;;;;;-2.3;80.6;98890;;;;
2022/01/21 21:30:23;;;;;;;15.4;21.6;;;;;;;-2.7;79.2;98860;;;;
2022/01/21 22:13:50;;;;;;;15.7;28.7;;;;;;;-2.2;79.3;98830;;;;
2022/01/21 22:44:25;;;;;;;13.8;18.5;;;;;;;-2.1;81;98820;;;;
2022/01/21 22:47:46;;;;;;;13.8;18.5;;;;;;;-2;81.5;98810;;;;
2022/01/21 23:07:15;;;;;;;14;21.8;;;;;;;-2;81.8;98810;;;;
2022/01/21 23:18:14;;;;;;;14;21.8;;;;;;;-1.8;81.5;98810;;;;
2022/01/21 23:28:14;;;;;;;12.1;18.3;;;;;;;-1.7;81.1;98790;;;;
2022/01/21 23:39:29;;;;;;;12.1;18.3;;;;;;;-1.6;80.6;98780;;;;
2022/01/21 23:49:19;;;;;;;12.1;18.3;;;;;;;-1.4;80.5;98760;;;;
2022/01/21 23:59:13;;;;;;;12.6;16.7;;;;;;;-1.3;79.8;98770;;;;
